sensor_id;sensor_type;location;lat;lon;timestamp;pressure;altitude;pressure_sealevel;temperature;humidity
56334;BME280;42240;53.626;55.886;2023-03-11T00:00:07;76289.88;;;-145.10;100.00
56334;BME280;42240;53.626;55.886;2023-03-11T00:01:45;76287.88;;;-145.10;100.00
56334;BME280;42240;53.626;55.886;2023-03-11T00:03:19;76303.69;;;-145.10;100.00
56334;BME280;42240;53.626;55.886;2023-03-11T00:04:54;76303.69;;;-145.10;100.00
56334;BME280;42240;53.626;55.886;2023-03-11T00:06:27;76281.97;;;-145.10;100.00
56334;BME280;42240;53.626;55.886;2023-03-11T00:08:01;76307.66;;;-145.10;100.00
56334;BME280;42240;53.626;55.886;2023-03-11T00:09:34;76311.63;;;-145.10;100.00
56334;BME280;42240;53.626;55.886;2023-03-11T00:11:08;76319.53;;;-145.10;100.00
56334;BME280;42240;53.626;55.886;2023-03-11T00:12:41;76315.56;;;-145.10;100.00
56334;BME280;42240;53.626;55.886;2023-03-11T00:14:14;76315.56;;;-145.10;100.00
56334;BME280;42240;53.626;55.886;2023-03-11T00:15:49;76317.53;;;-145.10;100.00
56334;BME280;42240;53.626;55.886;2023-03-11T00:17:22;76331.38;;;-145.10;100.00
56334;BME280;42240;53.626;55.886;2023-03-11T00:18:56;76323.47;;;-145.10;100.00
56334;BME280;42240;53.626;55.886;2023-03-11T00:20:33;76315.56;;;-145.10;100.00
56334;BME280;42240;53.626;55.886;2023-03-11T00:22:07;76323.47;;;-145.10;100.00
56334;BME280;42240;53.626;55.886;2023-03-11T00:23:40;76325.44;;;-145.10;100.00
56334;BME280;42240;53.626;55.886;2023-03-11T00:25:14;76325.44;;;-145.10;100.00
56334;BME280;42240;53.626;55.886;2023-03-11T00:26:47;76327.44;;;-145.10;100.00
56334;BME280;42240;53.626;55.886;2023-03-11T00:28:20;76331.38;;;-145.10;100.00
56334;BME280;42240;53.626;55.886;2023-03-11T00:29:56;76323.47;;;-145.10;100.00
56334;BME280;42240;53.626;55.886;2023-03-11T00:31:30;76331.38;;;-145.10;100.00
56334;BME280;42240;53.626;55.886;2023-03-11T00:33:03;76382.78;;;-145.10;100.00
56334;BME280;42240;53.626;55.886;2023-03-11T00:34:37;76337.31;;;-145.10;100.00
56334;BME280;42240;53.626;55.886;2023-03-11T00:36:22;76319.53;;;-145.10;100.00
56334;BME280;42240;53.626;55.886;2023-03-11T00:37:58;76331.38;;;-145.10;100.00
56334;BME280;42240;53.626;55.886;2023-03-11T00:39:32;76333.38;;;-145.10;100.00
56334;BME280;42240;53.626;55.886;2023-03-11T00:41:05;76329.41;;;-145.10;100.00
56334;BME280;42240;53.626;55.886;2023-03-11T00:42:38;76331.38;;;-145.10;100.00
56334;BME280;42240;53.626;55.886;2023-03-11T00:44:11;76323.47;;;-145.10;100.00
56334;BME280;42240;53.626;55.886;2023-03-11T00:45:45;76311.63;;;-145.10;100.00
56334;BME280;42240;53.626;55.886;2023-03-11T00:47:18;76319.53;;;-145.10;100.00
56334;BME280;42240;53.626;55.886;2023-03-11T00:48:51;76323.47;;;-145.10;100.00
56334;BME280;42240;53.626;55.886;2023-03-11T00:50:32;76299.75;;;-145.10;100.00
56334;BME280;42240;53.626;55.886;2023-03-11T00:52:05;76319.53;;;-145.10;100.00
56334;BME280;42240;53.626;55.886;2023-03-11T00:53:38;76402.56;;;-145.10;100.00
56334;BME280;42240;53.626;55.886;2023-03-11T00:55:14;76311.63;;;-145.10;100.00
56334;BME280;42240;53.626;55.886;2023-03-11T00:56:47;76301.72;;;-145.10;100.00
56334;BME280;42240;53.626;55.886;2023-03-11T00:58:20;76303.69;;;-145.10;100.00
56334;BME280;42240;53.626;55.886;2023-03-11T01:00:00;76311.63;;;-145.10;100.00
56334;BME280;42240;53.626;55.886;2023-03-11T01:01:34;76307.66;;;-145.10;100.00
56334;BME280;42240;53.626;55.886;2023-03-11T01:03:07;76313.59;;;-145.10;100.00
56334;BME280;42240;53.626;55.886;2023-03-11T01:04:41;76315.56;;;-145.10;100.00
56334;BME280;42240;53.626;55.886;2023-03-11T01:06:14;76317.53;;;-145.10;100.00
56334;BME280;42240;53.626;55.886;2023-03-11T01:07:48;76323.47;;;-145.10;100.00
56334;BME280;42240;53.626;55.886;2023-03-11T01:09:21;76337.31;;;-145.10;100.00
56334;BME280;42240;53.626;55.886;2023-03-11T01:10:54;76339.28;;;-145.10;100.00
56334;BME280;42240;53.626;55.886;2023-03-11T01:12:27;76325.44;;;-145.10;100.00
56334;BME280;42240;53.626;55.886;2023-03-11T01:13:59;76341.28;;;-145.10;100.00
56334;BME280;42240;53.626;55.886;2023-03-11T01:15:34;76343.25;;;-145.10;100.00
56334;BME280;42240;53.626;55.886;2023-03-11T01:17:08;76343.25;;;-145.10;100.00
56334;BME280;42240;53.626;55.886;2023-03-11T01:18:41;76341.28;;;-145.10;100.00
56334;BME280;42240;53.626;55.886;2023-03-11T01:20:15;76335.34;;;-145.10;100.00
56334;BME280;42240;53.626;55.886;2023-03-11T01:21:49;76335.34;;;-145.10;100.00
56334;BME280;42240;53.626;55.886;2023-03-11T01:23:22;76331.38;;;-145.10;100.00
56334;BME280;42240;53.626;55.886;2023-03-11T01:24:55;76331.38;;;-145.10;100.00
56334;BME280;42240;53.626;55.886;2023-03-11T01:26:28;76331.38;;;-145.10;100.00
56334;BME280;42240;53.626;55.886;2023-03-11T01:28:01;76325.44;;;-145.10;100.00
56334;BME280;42240;53.626;55.886;2023-03-11T01:29:34;76317.53;;;-145.10;100.00
56334;BME280;42240;53.626;55.886;2023-03-11T01:31:08;76313.59;;;-145.10;100.00
56334;BME280;42240;53.626;55.886;2023-03-11T01:32:42;76331.38;;;-145.10;100.00
56334;BME280;42240;53.626;55.886;2023-03-11T01:34:17;76323.47;;;-145.10;100.00
56334;BME280;42240;53.626;55.886;2023-03-11T01:35:50;76319.53;;;-145.10;100.00
56334;BME280;42240;53.626;55.886;2023-03-11T01:37:24;76323.47;;;-145.10;100.00
56334;BME280;42240;53.626;55.886;2023-03-11T01:38:57;76315.56;;;-145.10;100.00
56334;BME280;42240;53.626;55.886;2023-03-11T01:42:05;76315.56;;;-145.10;100.00
56334;BME280;42240;53.626;55.886;2023-03-11T01:45:38;76299.75;;;-145.10;100.00
56334;BME280;42240;53.626;55.886;2023-03-11T01:47:28;76315.56;;;-145.10;100.00
56334;BME280;42240;53.626;55.886;2023-03-11T01:49:05;76319.53;;;-145.10;100.00
56334;BME280;42240;53.626;55.886;2023-03-11T01:50:47;76305.69;;;-145.10;100.00
56334;BME280;42240;53.626;55.886;2023-03-11T01:52:22;76329.41;;;-145.10;100.00
56334;BME280;42240;53.626;55.886;2023-03-11T01:54:01;76412.44;;;-145.10;100.00
56334;BME280;42240;53.626;55.886;2023-03-11T01:55:35;76339.28;;;-145.10;100.00
56334;BME280;42240;53.626;55.886;2023-03-11T01:57:11;76335.34;;;-145.10;100.00
56334;BME280;42240;53.626;55.886;2023-03-11T01:58:47;76339.28;;;-145.10;100.00
56334;BME280;42240;53.626;55.886;2023-03-11T02:00:21;76363.03;;;-145.10;100.00
56334;BME280;42240;53.626;55.886;2023-03-11T02:02:11;76335.34;;;-145.10;100.00
56334;BME280;42240;53.626;55.886;2023-03-11T02:03:46;76353.13;;;-145.10;100.00
56334;BME280;42240;53.626;55.886;2023-03-11T02:05:21;76366.97;;;-145.10;100.00
56334;BME280;42240;53.626;55.886;2023-03-11T02:06:55;76430.25;;;-145.10;100.00
56334;BME280;42240;53.626;55.886;2023-03-11T02:08:29;76453.97;;;-145.10;100.00
56334;BME280;42240;53.626;55.886;2023-03-11T02:10:08;76463.88;;;-145.10;100.00
56334;BME280;42240;53.626;55.886;2023-03-11T02:11:41;76493.53;;;-145.10;100.00
56334;BME280;42240;53.626;55.886;2023-03-11T02:13:14;76491.53;;;-145.10;100.00
56334;BME280;42240;53.626;55.886;2023-03-11T02:14:50;76475.72;;;-145.10;100.00
56334;BME280;42240;53.626;55.886;2023-03-11T02:16:24;76489.56;;;-145.10;100.00
56334;BME280;42240;53.626;55.886;2023-03-11T02:17:58;76491.53;;;-145.10;100.00
56334;BME280;42240;53.626;55.886;2023-03-11T02:21:38;76511.31;;;-145.10;100.00
56334;BME280;42240;53.626;55.886;2023-03-11T02:23:13;76509.34;;;-145.10;100.00
56334;BME280;42240;53.626;55.886;2023-03-11T02:26:57;76531.09;;;-145.10;100.00
56334;BME280;42240;53.626;55.886;2023-03-11T02:28:30;76529.13;;;-145.10;100.00
56334;BME280;42240;53.626;55.886;2023-03-11T02:30:06;76519.22;;;-145.10;100.00
56334;BME280;42240;53.626;55.886;2023-03-11T02:31:42;76517.25;;;-145.10;100.00
56334;BME280;42240;53.626;55.886;2023-03-11T02:33:17;76517.25;;;-145.10;100.00
56334;BME280;42240;53.626;55.886;2023-03-11T02:34:51;76523.19;;;-145.10;100.00
56334;BME280;42240;53.626;55.886;2023-03-11T02:36:32;76525.16;;;-145.10;100.00
56334;BME280;42240;53.626;55.886;2023-03-11T02:38:05;76542.97;;;-145.10;100.00
56334;BME280;42240;53.626;55.886;2023-03-11T02:39:50;76606.22;;;-145.10;100.00
56334;BME280;42240;53.626;55.886;2023-03-11T02:41:24;76544.94;;;-145.10;100.00
56334;BME280;42240;53.626;55.886;2023-03-11T02:42:58;76560.75;;;-145.10;100.00
56334;BME280;42240;53.626;55.886;2023-03-11T02:44:33;76564.72;;;-145.10;100.00
56334;BME280;42240;53.626;55.886;2023-03-11T02:46:07;76574.59;;;-145.10;100.00
56334;BME280;42240;53.626;55.886;2023-03-11T02:47:43;76568.66;;;-145.10;100.00
56334;BME280;42240;53.626;55.886;2023-03-11T02:49:16;76572.63;;;-145.10;100.00
56334;BME280;42240;53.626;55.886;2023-03-11T02:50:50;76566.69;;;-145.10;100.00
56334;BME280;42240;53.626;55.886;2023-03-11T02:52:24;76574.59;;;-145.10;100.00
56334;BME280;42240;53.626;55.886;2023-03-11T02:54:02;76588.44;;;-145.10;100.00
56334;BME280;42240;53.626;55.886;2023-03-11T02:55:36;76596.34;;;-145.10;100.00
56334;BME280;42240;53.626;55.886;2023-03-11T02:57:11;76596.34;;;-145.10;100.00
56334;BME280;42240;53.626;55.886;2023-03-11T02:58:45;76592.41;;;-145.10;100.00
56334;BME280;42240;53.626;55.886;2023-03-11T03:00:18;76622.06;;;-145.10;100.00
56334;BME280;42240;53.626;55.886;2023-03-11T03:02:04;76610.19;;;-145.10;100.00
56334;BME280;42240;53.626;55.886;2023-03-11T03:03:38;76594.38;;;-145.10;100.00
56334;BME280;42240;53.626;55.886;2023-03-11T03:05:12;76608.22;;;-145.10;100.00
56334;BME280;42240;53.626;55.886;2023-03-11T03:06:45;76626.00;;;-145.10;100.00
56334;BME280;42240;53.626;55.886;2023-03-11T03:08:20;76600.31;;;-145.10;100.00
56334;BME280;42240;53.626;55.886;2023-03-11T03:09:53;76598.31;;;-145.10;100.00
56334;BME280;42240;53.626;55.886;2023-03-11T03:11:26;76608.22;;;-145.10;100.00
56334;BME280;42240;53.626;55.886;2023-03-11T03:12:59;76616.13;;;-145.10;100.00
56334;BME280;42240;53.626;55.886;2023-03-11T03:14:33;76628.00;;;-145.10;100.00
56334;BME280;42240;53.626;55.886;2023-03-11T03:16:06;76624.03;;;-145.10;100.00
56334;BME280;42240;53.626;55.886;2023-03-11T03:17:39;76612.16;;;-145.10;100.00
56334;BME280;42240;53.626;55.886;2023-03-11T03:19:12;76620.06;;;-145.10;100.00
56334;BME280;42240;53.626;55.886;2023-03-11T03:20:45;76622.06;;;-145.10;100.00
56334;BME280;42240;53.626;55.886;2023-03-11T03:22:21;76633.91;;;-145.10;100.00
56334;BME280;42240;53.626;55.886;2023-03-11T03:23:57;76631.94;;;-145.10;100.00
56334;BME280;42240;53.626;55.886;2023-03-11T03:25:30;76620.06;;;-145.10;100.00
56334;BME280;42240;53.626;55.886;2023-03-11T03:27:08;76614.16;;;-145.10;100.00
56334;BME280;42240;53.626;55.886;2023-03-11T03:28:41;76635.91;;;-145.10;100.00
56334;BME280;42240;53.626;55.886;2023-03-11T03:30:14;76651.72;;;-145.10;100.00
56334;BME280;42240;53.626;55.886;2023-03-11T03:31:47;76637.88;;;-145.10;100.00
56334;BME280;42240;53.626;55.886;2023-03-11T03:33:21;76659.63;;;-145.10;100.00
56334;BME280;42240;53.626;55.886;2023-03-11T03:34:54;76661.59;;;-145.10;100.00
56334;BME280;42240;53.626;55.886;2023-03-11T03:36:41;76633.91;;;-145.10;100.00
56334;BME280;42240;53.626;55.886;2023-03-11T03:38:15;76624.03;;;-145.10;100.00
56334;BME280;42240;53.626;55.886;2023-03-11T03:39:48;76614.16;;;-145.10;100.00
56334;BME280;42240;53.626;55.886;2023-03-11T03:41:22;76624.03;;;-145.10;100.00
56334;BME280;42240;53.626;55.886;2023-03-11T03:42:55;76641.81;;;-145.10;100.00
56334;BME280;42240;53.626;55.886;2023-03-11T03:44:28;76620.06;;;-145.10;100.00
56334;BME280;42240;53.626;55.886;2023-03-11T03:46:04;76697.19;;;-145.10;100.00
56334;BME280;42240;53.626;55.886;2023-03-11T03:47:43;76622.06;;;-145.10;100.00
56334;BME280;42240;53.626;55.886;2023-03-11T03:49:16;76602.28;;;-145.10;100.00
56334;BME280;42240;53.626;55.886;2023-03-11T03:50:49;76612.16;;;-145.10;100.00
56334;BME280;42240;53.626;55.886;2023-03-11T03:52:23;76618.09;;;-145.10;100.00
56334;BME280;42240;53.626;55.886;2023-03-11T03:53:56;76620.06;;;-145.10;100.00
56334;BME280;42240;53.626;55.886;2023-03-11T03:55:30;76608.22;;;-145.10;100.00
56334;BME280;42240;53.626;55.886;2023-03-11T03:57:04;76596.34;;;-145.10;100.00
56334;BME280;42240;53.626;55.886;2023-03-11T03:58:43;76594.38;;;-145.10;100.00
56334;BME280;42240;53.626;55.886;2023-03-11T04:00:17;76564.72;;;-145.10;100.00
56334;BME280;42240;53.626;55.886;2023-03-11T04:01:57;76590.41;;;-145.10;100.00
56334;BME280;42240;53.626;55.886;2023-03-11T04:03:34;76580.53;;;-145.10;100.00
56334;BME280;42240;53.626;55.886;2023-03-11T04:05:12;76578.56;;;-145.10;100.00
56334;BME280;42240;53.626;55.886;2023-03-11T04:06:46;76604.25;;;-145.10;100.00
56334;BME280;42240;53.626;55.886;2023-03-11T04:08:21;76598.31;;;-145.10;100.00
56334;BME280;42240;53.626;55.886;2023-03-11T04:09:54;76578.56;;;-145.10;100.00
56334;BME280;42240;53.626;55.886;2023-03-11T04:11:27;76576.56;;;-145.10;100.00
56334;BME280;42240;53.626;55.886;2023-03-11T04:13:00;76586.47;;;-145.10;100.00
56334;BME280;42240;53.626;55.886;2023-03-11T04:14:34;76586.47;;;-145.10;100.00
56334;BME280;42240;53.626;55.886;2023-03-11T04:16:07;76556.81;;;-145.10;100.00
56334;BME280;42240;53.626;55.886;2023-03-11T04:17:41;76564.72;;;-145.10;100.00
56334;BME280;42240;53.626;55.886;2023-03-11T04:19:13;76568.66;;;-145.10;100.00
56334;BME280;42240;53.626;55.886;2023-03-11T04:20:46;76550.88;;;-145.10;100.00
56334;BME280;42240;53.626;55.886;2023-03-11T04:22:19;76562.72;;;-145.10;100.00
56334;BME280;42240;53.626;55.886;2023-03-11T04:23:53;76556.81;;;-145.10;100.00
56334;BME280;42240;53.626;55.886;2023-03-11T04:25:31;76560.75;;;-145.10;100.00
56334;BME280;42240;53.626;55.886;2023-03-11T04:27:06;76548.88;;;-145.10;100.00
56334;BME280;42240;53.626;55.886;2023-03-11T04:28:40;76537.03;;;-145.10;100.00
56334;BME280;42240;53.626;55.886;2023-03-11T04:30:13;76552.84;;;-145.10;100.00
56334;BME280;42240;53.626;55.886;2023-03-11T04:31:48;76572.63;;;-145.10;100.00
56334;BME280;42240;53.626;55.886;2023-03-11T04:33:21;76558.78;;;-145.10;100.00
56334;BME280;42240;53.626;55.886;2023-03-11T04:34:55;76558.78;;;-145.10;100.00
56334;BME280;42240;53.626;55.886;2023-03-11T04:36:28;76570.63;;;-145.10;100.00
56334;BME280;42240;53.626;55.886;2023-03-11T04:38:01;76558.78;;;-145.10;100.00
56334;BME280;42240;53.626;55.886;2023-03-11T04:39:34;76556.81;;;-145.10;100.00
56334;BME280;42240;53.626;55.886;2023-03-11T04:41:07;76572.63;;;-145.10;100.00
56334;BME280;42240;53.626;55.886;2023-03-11T04:42:43;76546.91;;;-145.10;100.00
56334;BME280;42240;53.626;55.886;2023-03-11T04:44:16;76610.19;;;-145.10;100.00
56334;BME280;42240;53.626;55.886;2023-03-11T04:45:49;76568.66;;;-145.10;100.00
56334;BME280;42240;53.626;55.886;2023-03-11T04:47:23;76574.59;;;-145.10;100.00
56334;BME280;42240;53.626;55.886;2023-03-11T04:48:56;76568.66;;;-145.10;100.00
56334;BME280;42240;53.626;55.886;2023-03-11T04:50:29;76570.63;;;-145.10;100.00
56334;BME280;42240;53.626;55.886;2023-03-11T04:52:03;76562.72;;;-145.10;100.00
56334;BME280;42240;53.626;55.886;2023-03-11T04:53:36;76564.72;;;-145.10;100.00
56334;BME280;42240;53.626;55.886;2023-03-11T04:55:09;76556.81;;;-145.10;100.00
56334;BME280;42240;53.626;55.886;2023-03-11T04:56:42;76564.72;;;-145.10;100.00
56334;BME280;42240;53.626;55.886;2023-03-11T04:58:15;76548.88;;;-145.10;100.00
56334;BME280;42240;53.626;55.886;2023-03-11T04:59:50;76566.69;;;-145.10;100.00
56334;BME280;42240;53.626;55.886;2023-03-11T05:01:23;76556.81;;;-145.10;100.00
56334;BME280;42240;53.626;55.886;2023-03-11T05:02:56;76568.66;;;-145.10;100.00
56334;BME280;42240;53.626;55.886;2023-03-11T05:04:29;76584.47;;;-145.10;100.00
56334;BME280;42240;53.626;55.886;2023-03-11T05:06:03;76544.94;;;-145.10;100.00
56334;BME280;42240;53.626;55.886;2023-03-11T05:07:36;76513.28;;;-145.10;100.00
56334;BME280;42240;53.626;55.886;2023-03-11T05:09:10;76513.28;;;-145.10;100.00
56334;BME280;42240;53.626;55.886;2023-03-11T05:10:45;76477.72;;;-145.10;100.00
56334;BME280;42240;53.626;55.886;2023-03-11T05:12:18;76465.84;;;-145.10;98.89
56334;BME280;42240;53.626;55.886;2023-03-11T05:13:55;76467.81;;;-145.10;98.06
56334;BME280;42240;53.626;55.886;2023-03-11T05:15:28;76487.59;;;-145.10;96.67
56334;BME280;42240;53.626;55.886;2023-03-11T05:17:06;76453.97;;;-145.10;97.48
56334;BME280;42240;53.626;55.886;2023-03-11T05:18:39;76440.13;;;-145.10;97.10
56334;BME280;42240;53.626;55.886;2023-03-11T05:20:13;76446.06;;;-145.10;94.53
56334;BME280;42240;53.626;55.886;2023-03-11T05:21:47;76420.38;;;-145.10;95.21
56334;BME280;42240;53.626;55.886;2023-03-11T05:23:20;76410.47;;;-145.10;92.44
56334;BME280;42240;53.626;55.886;2023-03-11T05:24:53;76414.44;;;-145.10;89.64
56334;BME280;42240;53.626;55.886;2023-03-11T05:26:27;76440.13;;;-145.10;88.39
56334;BME280;42240;53.626;55.886;2023-03-11T05:28:00;76418.38;;;-145.10;88.65
56334;BME280;42240;53.626;55.886;2023-03-11T05:29:33;76430.25;;;-145.10;89.39
56334;BME280;42240;53.626;55.886;2023-03-11T05:31:08;76440.13;;;-145.10;87.83
56334;BME280;42240;53.626;55.886;2023-03-11T05:32:43;76430.25;;;-145.10;89.45
56334;BME280;42240;53.626;55.886;2023-03-11T05:34:17;76432.22;;;-145.10;88.69
56334;BME280;42240;53.626;55.886;2023-03-11T05:35:50;76477.72;;;-145.10;87.00
56334;BME280;42240;53.626;55.886;2023-03-11T05:37:25;76461.88;;;-145.10;87.00
56334;BME280;42240;53.626;55.886;2023-03-11T05:39:00;76461.88;;;-145.10;88.10
56334;BME280;42240;53.626;55.886;2023-03-11T05:40:35;76469.78;;;-145.10;88.38
56334;BME280;42240;53.626;55.886;2023-03-11T05:42:08;76483.63;;;-145.10;87.09
56334;BME280;42240;53.626;55.886;2023-03-11T05:43:41;76487.59;;;-145.10;87.09
56334;BME280;42240;53.626;55.886;2023-03-11T05:45:15;76430.25;;;-145.10;86.41
56334;BME280;42240;53.626;55.886;2023-03-11T05:46:50;76442.13;;;-145.10;84.57
56334;BME280;42240;53.626;55.886;2023-03-11T05:48:23;76406.53;;;-145.10;84.54
56334;BME280;42240;53.626;55.886;2023-03-11T05:49:57;76380.81;;;-145.10;82.18
56334;BME280;42240;53.626;55.886;2023-03-11T05:51:30;76339.28;;;-145.10;81.52
56334;BME280;42240;53.626;55.886;2023-03-11T05:53:03;76359.06;;;-145.10;81.75
56334;BME280;42240;53.626;55.886;2023-03-11T05:54:36;76361.03;;;-145.10;78.68
56334;BME280;42240;53.626;55.886;2023-03-11T05:56:09;76380.81;;;-145.10;76.74
56334;BME280;42240;53.626;55.886;2023-03-11T05:57:42;76372.91;;;-145.10;74.99
56334;BME280;42240;53.626;55.886;2023-03-11T05:59:16;76388.72;;;-145.10;77.03
56334;BME280;42240;53.626;55.886;2023-03-11T06:00:53;76372.91;;;-145.10;77.41
56334;BME280;42240;53.626;55.886;2023-03-11T06:02:26;76355.13;;;-145.10;79.24
56334;BME280;42240;53.626;55.886;2023-03-11T06:04:00;76363.03;;;-145.10;78.30
56334;BME280;42240;53.626;55.886;2023-03-11T06:05:33;76327.44;;;-145.10;75.26
56334;BME280;42240;53.626;55.886;2023-03-11T06:07:07;76368.94;;;-145.10;69.22
56334;BME280;42240;53.626;55.886;2023-03-11T06:08:42;76392.69;;;-145.10;68.66
56334;BME280;42240;53.626;55.886;2023-03-11T06:10:23;76392.69;;;-145.10;69.42
56334;BME280;42240;53.626;55.886;2023-03-11T06:11:56;76400.59;;;-145.10;71.62
56334;BME280;42240;53.626;55.886;2023-03-11T06:13:36;76386.75;;;-145.10;70.14
56334;BME280;42240;53.626;55.886;2023-03-11T06:15:10;76378.84;;;-145.10;69.75
56334;BME280;42240;53.626;55.886;2023-03-11T06:16:44;76351.16;;;-145.10;70.12
56334;BME280;42240;53.626;55.886;2023-03-11T06:18:17;76355.13;;;-145.10;71.18
56334;BME280;42240;53.626;55.886;2023-03-11T06:19:53;76394.66;;;-145.10;70.28
56334;BME280;42240;53.626;55.886;2023-03-11T06:21:27;76400.59;;;-145.10;69.45
56334;BME280;42240;53.626;55.886;2023-03-11T06:23:00;76392.69;;;-145.10;68.98
56334;BME280;42240;53.626;55.886;2023-03-11T06:24:33;76390.69;;;-145.10;70.57
56334;BME280;42240;53.626;55.886;2023-03-11T06:26:07;76366.97;;;-145.10;70.62
56334;BME280;42240;53.626;55.886;2023-03-11T06:27:43;76410.47;;;-145.10;70.20
56334;BME280;42240;53.626;55.886;2023-03-11T06:29:20;76426.28;;;-145.10;71.62
56334;BME280;42240;53.626;55.886;2023-03-11T06:31:06;76382.78;;;-145.10;72.00
56334;BME280;42240;53.626;55.886;2023-03-11T06:32:39;76283.94;;;-145.10;68.95
56334;BME280;42240;53.626;55.886;2023-03-11T06:34:12;76102.03;;;-145.10;65.51
56334;BME280;42240;53.626;55.886;2023-03-11T06:35:56;75983.41;;;-145.10;60.59
56334;BME280;42240;53.626;55.886;2023-03-11T06:37:29;75949.78;;;-145.10;55.77
56334;BME280;42240;53.626;55.886;2023-03-11T06:39:02;75924.09;;;-145.10;53.49
56334;BME280;42240;53.626;55.886;2023-03-11T06:40:37;75987.34;;;-145.10;52.21
56334;BME280;42240;53.626;55.886;2023-03-11T06:42:11;75995.25;;;-145.10;52.24
56334;BME280;42240;53.626;55.886;2023-03-11T06:43:46;76062.50;;;-145.10;52.22
56334;BME280;42240;53.626;55.886;2023-03-11T06:45:18;76046.66;;;-145.10;52.25
56334;BME280;42240;53.626;55.886;2023-03-11T06:46:53;76090.16;;;-145.10;51.65
56334;BME280;42240;53.626;55.886;2023-03-11T06:48:27;76074.34;;;-145.10;51.77
56334;BME280;42240;53.626;55.886;2023-03-11T06:50:00;76026.91;;;-145.10;51.53
56334;BME280;42240;53.626;55.886;2023-03-11T06:51:38;76013.06;;;-145.10;50.22
56334;BME280;42240;53.626;55.886;2023-03-11T06:53:12;76015.03;;;-145.10;50.71
56334;BME280;42240;53.626;55.886;2023-03-11T06:54:46;76056.56;;;-145.10;50.59
56334;BME280;42240;53.626;55.886;2023-03-11T06:56:22;76092.16;;;-145.10;50.53
56334;BME280;42240;53.626;55.886;2023-03-11T06:58:00;76070.41;;;-145.10;51.02
56334;BME280;42240;53.626;55.886;2023-03-11T06:59:34;75963.63;;;-145.10;51.71
56334;BME280;42240;53.626;55.886;2023-03-11T07:01:16;75961.66;;;-145.10;49.79
56334;BME280;42240;53.626;55.886;2023-03-11T07:02:50;76013.06;;;-145.10;49.51
56334;BME280;42240;53.626;55.886;2023-03-11T07:04:24;76068.41;;;-145.10;49.83
56334;BME280;42240;53.626;55.886;2023-03-11T07:05:59;76098.06;;;-145.10;49.80
56334;BME280;42240;53.626;55.886;2023-03-11T07:07:32;76022.94;;;-145.10;50.05
56334;BME280;42240;53.626;55.886;2023-03-11T07:09:07;75965.59;;;-145.10;49.03
56334;BME280;42240;53.626;55.886;2023-03-11T07:10:45;75967.59;;;-145.10;49.21
56334;BME280;42240;53.626;55.886;2023-03-11T07:12:18;76082.25;;;-145.10;49.49
56334;BME280;42240;53.626;55.886;2023-03-11T07:13:55;76153.44;;;-145.10;50.77
56334;BME280;42240;53.626;55.886;2023-03-11T07:15:28;76183.09;;;-145.10;51.54
56334;BME280;42240;53.626;55.886;2023-03-11T07:17:01;76240.44;;;-145.10;52.02
56334;BME280;42240;53.626;55.886;2023-03-11T07:18:43;76264.16;;;-145.10;51.40
56334;BME280;42240;53.626;55.886;2023-03-11T07:20:17;76272.06;;;-145.10;52.71
56334;BME280;42240;53.626;55.886;2023-03-11T07:21:50;76256.25;;;-145.10;52.67
56334;BME280;42240;53.626;55.886;2023-03-11T07:23:24;76208.78;;;-145.10;53.54
56334;BME280;42240;53.626;55.886;2023-03-11T07:24:57;76240.44;;;-145.10;53.10
56334;BME280;42240;53.626;55.886;2023-03-11T07:26:31;76268.13;;;-145.10;52.78
56334;BME280;42240;53.626;55.886;2023-03-11T07:28:05;76238.47;;;-145.10;53.15
56334;BME280;42240;53.626;55.886;2023-03-11T07:29:38;76242.41;;;-145.10;54.59
56334;BME280;42240;53.626;55.886;2023-03-11T07:31:23;76236.47;;;-145.10;54.44
56334;BME280;42240;53.626;55.886;2023-03-11T07:32:57;76212.75;;;-145.10;55.08
56334;BME280;42240;53.626;55.886;2023-03-11T07:34:31;76260.22;;;-145.10;55.38
56334;BME280;42240;53.626;55.886;2023-03-11T07:36:10;76299.75;;;-145.10;56.46
56334;BME280;42240;53.626;55.886;2023-03-11T07:37:43;76295.78;;;-145.10;57.46
56334;BME280;42240;53.626;55.886;2023-03-11T07:39:17;76329.41;;;-145.10;57.92
56334;BME280;42240;53.626;55.886;2023-03-11T07:40:58;76331.38;;;-145.10;59.37
56334;BME280;42240;53.626;55.886;2023-03-11T07:42:32;76260.22;;;-145.10;59.72
56334;BME280;42240;53.626;55.886;2023-03-11T07:44:06;76388.72;;;-145.10;58.51
56334;BME280;42240;53.626;55.886;2023-03-11T07:45:41;76295.78;;;-145.10;57.73
56334;BME280;42240;53.626;55.886;2023-03-11T07:47:14;76452.00;;;-145.10;57.99
56334;BME280;42240;53.626;55.886;2023-03-11T07:48:48;76463.88;;;-145.10;60.59
56334;BME280;42240;53.626;55.886;2023-03-11T07:50:22;76436.19;;;-145.10;61.87
56334;BME280;42240;53.626;55.886;2023-03-11T07:51:55;76335.34;;;-145.10;60.76
56334;BME280;42240;53.626;55.886;2023-03-11T07:53:29;76260.22;;;-145.10;58.78
56334;BME280;42240;53.626;55.886;2023-03-11T07:55:02;76254.28;;;-145.10;57.46
56334;BME280;42240;53.626;55.886;2023-03-11T07:56:35;76285.91;;;-145.10;55.90
56334;BME280;42240;53.626;55.886;2023-03-11T07:58:09;76218.69;;;-145.10;56.73
56334;BME280;42240;53.626;55.886;2023-03-11T07:59:42;76240.44;;;-145.10;55.35
56334;BME280;42240;53.626;55.886;2023-03-11T08:01:18;76315.56;;;-145.10;57.54
56334;BME280;42240;53.626;55.886;2023-03-11T08:02:52;76402.56;;;-145.10;57.93
56334;BME280;42240;53.626;55.886;2023-03-11T08:04:25;76434.19;;;-145.10;59.40